sensor_id;sensor_type;location;lat;lon;timestamp;P1;durP1;ratioP1;P2;durP2;ratioP2
47715;SDS011;33476;50.984;3.538;2023-02-23T00:01:26;41.47;;;16.98;;
47715;SDS011;33476;50.984;3.538;2023-02-23T00:06:19;43.50;;;18.83;;
47715;SDS011;33476;50.984;3.538;2023-02-23T00:08:44;40.38;;;16.95;;
47715;SDS011;33476;50.984;3.538;2023-02-23T00:11:12;38.17;;;17.95;;
47715;SDS011;33476;50.984;3.538;2023-02-23T00:13:38;46.08;;;18.73;;
47715;SDS011;33476;50.984;3.538;2023-02-23T00:16:05;41.97;;;18.42;;
47715;SDS011;33476;50.984;3.538;2023-02-23T00:18:42;40.10;;;18.25;;
47715;SDS011;33476;50.984;3.538;2023-02-23T00:21:22;39.47;;;16.38;;
47715;SDS011;33476;50.984;3.538;2023-02-23T00:23:51;37.20;;;16.75;;
47715;SDS011;33476;50.984;3.538;2023-02-23T00:26:19;43.60;;;18.25;;
47715;SDS011;33476;50.984;3.538;2023-02-23T00:28:46;36.08;;;17.38;;
47715;SDS011;33476;50.984;3.538;2023-02-23T00:31:12;42.17;;;16.98;;
47715;SDS011;33476;50.984;3.538;2023-02-23T00:33:38;41.75;;;18.63;;
47715;SDS011;33476;50.984;3.538;2023-02-23T00:36:06;41.92;;;17.75;;
47715;SDS011;33476;50.984;3.538;2023-02-23T00:38:33;46.42;;;18.25;;
47715;SDS011;33476;50.984;3.538;2023-02-23T00:41:03;39.72;;;18.00;;
47715;SDS011;33476;50.984;3.538;2023-02-23T00:43:37;38.80;;;17.50;;
47715;SDS011;33476;50.984;3.538;2023-02-23T00:46:04;42.53;;;18.30;;
47715;SDS011;33476;50.984;3.538;2023-02-23T00:48:31;42.88;;;17.65;;
47715;SDS011;33476;50.984;3.538;2023-02-23T00:51:00;40.08;;;17.63;;
47715;SDS011;33476;50.984;3.538;2023-02-23T00:53:26;41.53;;;18.65;;
47715;SDS011;33476;50.984;3.538;2023-02-23T00:55:52;36.67;;;17.48;;
47715;SDS011;33476;50.984;3.538;2023-02-23T00:58:18;41.08;;;18.10;;
47715;SDS011;33476;50.984;3.538;2023-02-23T01:00:44;46.35;;;18.08;;
47715;SDS011;33476;50.984;3.538;2023-02-23T01:03:09;40.58;;;18.67;;
47715;SDS011;33476;50.984;3.538;2023-02-23T01:05:34;42.03;;;18.15;;
47715;SDS011;33476;50.984;3.538;2023-02-23T01:08:00;45.50;;;17.98;;
47715;SDS011;33476;50.984;3.538;2023-02-23T01:10:25;41.60;;;18.08;;
47715;SDS011;33476;50.984;3.538;2023-02-23T01:12:50;42.80;;;18.85;;
47715;SDS011;33476;50.984;3.538;2023-02-23T01:15:16;42.70;;;17.38;;
47715;SDS011;33476;50.984;3.538;2023-02-23T01:17:43;40.83;;;18.23;;
47715;SDS011;33476;50.984;3.538;2023-02-23T01:20:13;43.75;;;18.83;;
47715;SDS011;33476;50.984;3.538;2023-02-23T01:22:47;41.97;;;18.52;;
47715;SDS011;33476;50.984;3.538;2023-02-23T01:25:15;43.28;;;19.65;;
47715;SDS011;33476;50.984;3.538;2023-02-23T01:27:42;50.33;;;20.25;;
47715;SDS011;33476;50.984;3.538;2023-02-23T01:30:08;42.47;;;18.85;;
47715;SDS011;33476;50.984;3.538;2023-02-23T01:32:36;41.75;;;19.52;;
47715;SDS011;33476;50.984;3.538;2023-02-23T01:35:09;45.95;;;18.98;;
47715;SDS011;33476;50.984;3.538;2023-02-23T01:37:38;45.20;;;19.17;;
47715;SDS011;33476;50.984;3.538;2023-02-23T01:40:07;43.70;;;18.88;;
47715;SDS011;33476;50.984;3.538;2023-02-23T01:42:40;45.85;;;18.48;;
47715;SDS011;33476;50.984;3.538;2023-02-23T01:45:17;39.95;;;18.05;;
47715;SDS011;33476;50.984;3.538;2023-02-23T01:47:43;43.20;;;18.38;;
47715;SDS011;33476;50.984;3.538;2023-02-23T01:50:09;43.58;;;18.67;;
47715;SDS011;33476;50.984;3.538;2023-02-23T01:52:36;47.60;;;19.27;;
47715;SDS011;33476;50.984;3.538;2023-02-23T01:55:02;48.90;;;19.85;;
47715;SDS011;33476;50.984;3.538;2023-02-23T01:57:30;47.25;;;19.52;;
47715;SDS011;33476;50.984;3.538;2023-02-23T01:59:55;39.92;;;19.42;;
47715;SDS011;33476;50.984;3.538;2023-02-23T02:02:22;47.30;;;19.73;;
47715;SDS011;33476;50.984;3.538;2023-02-23T02:04:56;40.78;;;18.65;;
47715;SDS011;33476;50.984;3.538;2023-02-23T02:07:23;39.20;;;18.33;;
47715;SDS011;33476;50.984;3.538;2023-02-23T02:09:53;45.17;;;19.35;;
47715;SDS011;33476;50.984;3.538;2023-02-23T02:12:36;47.55;;;19.52;;
47715;SDS011;33476;50.984;3.538;2023-02-23T02:15:03;42.90;;;19.88;;
47715;SDS011;33476;50.984;3.538;2023-02-23T02:36:54;49.38;;;19.77;;
47715;SDS011;33476;50.984;3.538;2023-02-23T02:39:53;47.17;;;20.65;;
47715;SDS011;33476;50.984;3.538;2023-02-23T02:42:43;44.22;;;20.17;;
47715;SDS011;33476;50.984;3.538;2023-02-23T02:45:20;45.53;;;19.33;;
47715;SDS011;33476;50.984;3.538;2023-02-23T02:47:58;45.22;;;19.35;;
47715;SDS011;33476;50.984;3.538;2023-02-23T02:53:02;45.00;;;20.10;;
47715;SDS011;33476;50.984;3.538;2023-02-23T02:55:33;43.10;;;19.77;;
47715;SDS011;33476;50.984;3.538;2023-02-23T02:58:03;43.55;;;19.35;;
47715;SDS011;33476;50.984;3.538;2023-02-23T03:00:41;46.85;;;20.63;;
47715;SDS011;33476;50.984;3.538;2023-02-23T03:03:33;46.58;;;20.73;;
47715;SDS011;33476;50.984;3.538;2023-02-23T03:06:20;41.50;;;19.67;;
47715;SDS011;33476;50.984;3.538;2023-02-23T03:12:13;51.13;;;21.52;;
47715;SDS011;33476;50.984;3.538;2023-02-23T03:18:19;48.22;;;20.73;;
47715;SDS011;33476;50.984;3.538;2023-02-23T03:21:14;51.95;;;20.50;;
47715;SDS011;33476;50.984;3.538;2023-02-23T03:24:27;50.28;;;21.63;;
47715;SDS011;33476;50.984;3.538;2023-02-23T03:30:22;53.67;;;22.42;;
47715;SDS011;33476;50.984;3.538;2023-02-23T03:33:16;46.45;;;20.63;;
47715;SDS011;33476;50.984;3.538;2023-02-23T03:36:09;44.65;;;20.08;;
47715;SDS011;33476;50.984;3.538;2023-02-23T03:38:59;47.92;;;20.83;;
47715;SDS011;33476;50.984;3.538;2023-02-23T03:41:46;47.08;;;19.98;;
47715;SDS011;33476;50.984;3.538;2023-02-23T03:44:36;51.72;;;20.70;;
47715;SDS011;33476;50.984;3.538;2023-02-23T03:47:26;43.28;;;19.90;;
47715;SDS011;33476;50.984;3.538;2023-02-23T03:50:20;46.72;;;21.02;;
47715;SDS011;33476;50.984;3.538;2023-02-23T03:53:11;46.65;;;20.13;;
47715;SDS011;33476;50.984;3.538;2023-02-23T03:56:03;49.67;;;20.30;;
47715;SDS011;33476;50.984;3.538;2023-02-23T03:58:53;42.30;;;19.92;;
47715;SDS011;33476;50.984;3.538;2023-02-23T04:01:42;50.42;;;20.67;;
47715;SDS011;33476;50.984;3.538;2023-02-23T04:04:26;46.03;;;19.55;;
47715;SDS011;33476;50.984;3.538;2023-02-23T04:07:12;44.90;;;20.08;;
47715;SDS011;33476;50.984;3.538;2023-02-23T04:09:59;45.30;;;21.05;;
47715;SDS011;33476;50.984;3.538;2023-02-23T04:12:55;48.03;;;20.25;;
47715;SDS011;33476;50.984;3.538;2023-02-23T04:15:50;50.20;;;22.15;;
47715;SDS011;33476;50.984;3.538;2023-02-23T04:18:21;49.20;;;22.00;;
47715;SDS011;33476;50.984;3.538;2023-02-23T04:20:48;47.55;;;20.88;;
47715;SDS011;33476;50.984;3.538;2023-02-23T04:23:14;47.50;;;20.00;;
47715;SDS011;33476;50.984;3.538;2023-02-23T04:25:39;49.47;;;22.05;;
47715;SDS011;33476;50.984;3.538;2023-02-23T04:28:05;45.97;;;20.95;;
47715;SDS011;33476;50.984;3.538;2023-02-23T04:30:30;47.17;;;20.83;;
47715;SDS011;33476;50.984;3.538;2023-02-23T04:32:56;40.67;;;18.48;;
47715;SDS011;33476;50.984;3.538;2023-02-23T04:35:23;44.63;;;19.58;;
47715;SDS011;33476;50.984;3.538;2023-02-23T04:37:49;43.30;;;19.00;;
47715;SDS011;33476;50.984;3.538;2023-02-23T04:40:14;43.35;;;18.92;;
47715;SDS011;33476;50.984;3.538;2023-02-23T04:42:40;40.95;;;18.95;;
47715;SDS011;33476;50.984;3.538;2023-02-23T04:45:05;44.13;;;18.27;;
47715;SDS011;33476;50.984;3.538;2023-02-23T04:47:32;44.80;;;19.88;;
47715;SDS011;33476;50.984;3.538;2023-02-23T04:49:57;45.30;;;19.65;;
47715;SDS011;33476;50.984;3.538;2023-02-23T04:52:23;43.47;;;19.10;;
47715;SDS011;33476;50.984;3.538;2023-02-23T04:54:48;39.40;;;18.42;;
47715;SDS011;33476;50.984;3.538;2023-02-23T04:57:13;38.03;;;17.30;;
47715;SDS011;33476;50.984;3.538;2023-02-23T04:59:39;41.95;;;18.98;;
47715;SDS011;33476;50.984;3.538;2023-02-23T05:02:04;40.13;;;17.92;;
47715;SDS011;33476;50.984;3.538;2023-02-23T05:04:30;43.05;;;18.92;;
47715;SDS011;33476;50.984;3.538;2023-02-23T05:06:56;38.90;;;18.33;;
47715;SDS011;33476;50.984;3.538;2023-02-23T05:09:21;37.95;;;17.83;;
47715;SDS011;33476;50.984;3.538;2023-02-23T05:11:46;37.60;;;16.55;;
47715;SDS011;33476;50.984;3.538;2023-02-23T05:14:12;38.22;;;17.10;;
47715;SDS011;33476;50.984;3.538;2023-02-23T05:16:37;37.65;;;17.70;;
47715;SDS011;33476;50.984;3.538;2023-02-23T05:19:03;38.65;;;18.17;;
47715;SDS011;33476;50.984;3.538;2023-02-23T05:21:29;39.17;;;17.85;;
47715;SDS011;33476;50.984;3.538;2023-02-23T05:23:54;40.45;;;18.88;;
47715;SDS011;33476;50.984;3.538;2023-02-23T05:26:21;40.38;;;18.92;;
47715;SDS011;33476;50.984;3.538;2023-02-23T05:28:47;42.72;;;19.38;;
47715;SDS011;33476;50.984;3.538;2023-02-23T05:31:13;36.90;;;18.02;;
47715;SDS011;33476;50.984;3.538;2023-02-23T05:33:39;42.88;;;19.33;;
47715;SDS011;33476;50.984;3.538;2023-02-23T05:36:11;44.92;;;20.80;;
47715;SDS011;33476;50.984;3.538;2023-02-23T05:38:39;46.92;;;19.98;;
47715;SDS011;33476;50.984;3.538;2023-02-23T05:41:05;54.00;;;21.40;;
47715;SDS011;33476;50.984;3.538;2023-02-23T05:43:34;50.10;;;20.73;;
47715;SDS011;33476;50.984;3.538;2023-02-23T05:46:00;49.10;;;20.35;;
47715;SDS011;33476;50.984;3.538;2023-02-23T05:48:26;53.85;;;21.58;;
47715;SDS011;33476;50.984;3.538;2023-02-23T05:50:52;44.88;;;19.70;;
47715;SDS011;33476;50.984;3.538;2023-02-23T05:53:17;46.47;;;20.70;;
47715;SDS011;33476;50.984;3.538;2023-02-23T05:55:43;44.15;;;20.58;;
47715;SDS011;33476;50.984;3.538;2023-02-23T05:58:08;45.85;;;19.90;;
47715;SDS011;33476;50.984;3.538;2023-02-23T06:00:33;45.78;;;19.67;;
47715;SDS011;33476;50.984;3.538;2023-02-23T06:02:59;49.08;;;20.08;;
47715;SDS011;33476;50.984;3.538;2023-02-23T06:05:24;44.58;;;19.92;;
47715;SDS011;33476;50.984;3.538;2023-02-23T06:07:49;41.78;;;18.58;;
47715;SDS011;33476;50.984;3.538;2023-02-23T06:10:15;46.45;;;19.98;;
47715;SDS011;33476;50.984;3.538;2023-02-23T06:12:41;48.30;;;20.25;;
47715;SDS011;33476;50.984;3.538;2023-02-23T06:15:06;44.85;;;19.25;;
47715;SDS011;33476;50.984;3.538;2023-02-23T06:17:32;44.45;;;20.35;;
47715;SDS011;33476;50.984;3.538;2023-02-23T06:19:57;51.22;;;21.15;;
47715;SDS011;33476;50.984;3.538;2023-02-23T06:22:23;50.20;;;20.67;;
47715;SDS011;33476;50.984;3.538;2023-02-23T06:24:49;45.70;;;20.30;;
47715;SDS011;33476;50.984;3.538;2023-02-23T06:27:14;44.47;;;19.83;;
47715;SDS011;33476;50.984;3.538;2023-02-23T06:29:39;45.03;;;19.25;;
47715;SDS011;33476;50.984;3.538;2023-02-23T06:32:05;45.45;;;19.27;;
47715;SDS011;33476;50.984;3.538;2023-02-23T06:34:30;47.75;;;20.23;;
47715;SDS011;33476;50.984;3.538;2023-02-23T06:36:57;47.35;;;20.10;;
47715;SDS011;33476;50.984;3.538;2023-02-23T06:39:23;49.33;;;20.23;;
47715;SDS011;33476;50.984;3.538;2023-02-23T06:41:48;45.30;;;20.05;;
47715;SDS011;33476;50.984;3.538;2023-02-23T06:44:14;42.00;;;19.35;;
47715;SDS011;33476;50.984;3.538;2023-02-23T06:46:39;45.47;;;19.83;;
47715;SDS011;33476;50.984;3.538;2023-02-23T06:49:04;49.20;;;20.63;;
47715;SDS011;33476;50.984;3.538;2023-02-23T06:51:30;47.38;;;19.38;;
47715;SDS011;33476;50.984;3.538;2023-02-23T06:53:55;45.95;;;20.60;;
47715;SDS011;33476;50.984;3.538;2023-02-23T06:56:21;44.65;;;19.92;;
47715;SDS011;33476;50.984;3.538;2023-02-23T06:58:46;48.47;;;20.35;;
47715;SDS011;33476;50.984;3.538;2023-02-23T07:01:12;48.42;;;20.25;;
47715;SDS011;33476;50.984;3.538;2023-02-23T07:03:38;46.13;;;19.45;;
47715;SDS011;33476;50.984;3.538;2023-02-23T07:06:04;41.90;;;19.27;;
47715;SDS011;33476;50.984;3.538;2023-02-23T07:08:30;44.67;;;19.63;;
47715;SDS011;33476;50.984;3.538;2023-02-23T07:10:56;47.25;;;20.58;;
47715;SDS011;33476;50.984;3.538;2023-02-23T07:13:28;44.30;;;20.33;;
47715;SDS011;33476;50.984;3.538;2023-02-23T07:15:55;49.15;;;20.90;;
47715;SDS011;33476;50.984;3.538;2023-02-23T07:18:21;45.20;;;20.23;;
47715;SDS011;33476;50.984;3.538;2023-02-23T07:20:46;47.88;;;21.13;;
47715;SDS011;33476;50.984;3.538;2023-02-23T07:23:12;46.40;;;21.25;;
47715;SDS011;33476;50.984;3.538;2023-02-23T07:25:38;55.97;;;21.90;;
47715;SDS011;33476;50.984;3.538;2023-02-23T07:28:03;47.35;;;21.10;;
47715;SDS011;33476;50.984;3.538;2023-02-23T07:30:28;51.45;;;22.13;;
47715;SDS011;33476;50.984;3.538;2023-02-23T07:32:54;46.65;;;20.80;;
47715;SDS011;33476;50.984;3.538;2023-02-23T07:35:19;55.47;;;22.55;;
47715;SDS011;33476;50.984;3.538;2023-02-23T07:37:45;50.63;;;21.85;;
47715;SDS011;33476;50.984;3.538;2023-02-23T07:40:10;50.95;;;20.95;;
47715;SDS011;33476;50.984;3.538;2023-02-23T07:42:36;50.55;;;21.30;;
47715;SDS011;33476;50.984;3.538;2023-02-23T07:45:02;45.10;;;21.23;;
47715;SDS011;33476;50.984;3.538;2023-02-23T07:47:28;47.15;;;21.95;;
47715;SDS011;33476;50.984;3.538;2023-02-23T07:49:58;45.33;;;20.73;;
47715;SDS011;33476;50.984;3.538;2023-02-23T07:52:26;46.72;;;21.33;;
47715;SDS011;33476;50.984;3.538;2023-02-23T07:54:51;46.67;;;20.55;;
47715;SDS011;33476;50.984;3.538;2023-02-23T07:57:17;48.13;;;20.00;;
47715;SDS011;33476;50.984;3.538;2023-02-23T07:59:42;43.17;;;19.88;;
47715;SDS011;33476;50.984;3.538;2023-02-23T08:02:08;46.47;;;20.17;;
47715;SDS011;33476;50.984;3.538;2023-02-23T08:04:34;42.88;;;20.38;;
47715;SDS011;33476;50.984;3.538;2023-02-23T08:07:00;45.53;;;20.83;;
47715;SDS011;33476;50.984;3.538;2023-02-23T08:09:25;46.67;;;20.17;;
47715;SDS011;33476;50.984;3.538;2023-02-23T08:11:50;45.72;;;20.05;;
47715;SDS011;33476;50.984;3.538;2023-02-23T08:14:16;43.90;;;19.67;;
47715;SDS011;33476;50.984;3.538;2023-02-23T08:16:45;45.70;;;20.20;;
47715;SDS011;33476;50.984;3.538;2023-02-23T08:19:11;45.53;;;21.02;;
47715;SDS011;33476;50.984;3.538;2023-02-23T08:21:36;45.55;;;20.05;;
47715;SDS011;33476;50.984;3.538;2023-02-23T08:24:01;44.58;;;20.02;;
47715;SDS011;33476;50.984;3.538;2023-02-23T08:26:27;42.83;;;19.90;;
47715;SDS011;33476;50.984;3.538;2023-02-23T08:28:52;38.55;;;18.63;;
47715;SDS011;33476;50.984;3.538;2023-02-23T08:31:18;45.40;;;20.40;;
47715;SDS011;33476;50.984;3.538;2023-02-23T08:33:46;47.35;;;20.83;;
47715;SDS011;33476;50.984;3.538;2023-02-23T08:36:11;44.40;;;20.17;;
47715;SDS011;33476;50.984;3.538;2023-02-23T08:38:36;44.35;;;20.17;;
47715;SDS011;33476;50.984;3.538;2023-02-23T08:41:02;45.17;;;20.90;;
47715;SDS011;33476;50.984;3.538;2023-02-23T08:43:29;43.15;;;20.20;;
47715;SDS011;33476;50.984;3.538;2023-02-23T08:45:54;47.35;;;20.10;;
47715;SDS011;33476;50.984;3.538;2023-02-23T08:48:20;48.78;;;20.80;;
47715;SDS011;33476;50.984;3.538;2023-02-23T08:50:48;50.28;;;21.92;;
47715;SDS011;33476;50.984;3.538;2023-02-23T08:53:14;51.28;;;21.35;;
47715;SDS011;33476;50.984;3.538;2023-02-23T08:55:40;52.53;;;22.55;;
47715;SDS011;33476;50.984;3.538;2023-02-23T08:58:09;50.05;;;20.38;;
47715;SDS011;33476;50.984;3.538;2023-02-23T09:00:35;49.88;;;20.88;;
47715;SDS011;33476;50.984;3.538;2023-02-23T09:03:02;49.15;;;22.50;;
47715;SDS011;33476;50.984;3.538;2023-02-23T09:05:29;57.55;;;22.35;;
47715;SDS011;33476;50.984;3.538;2023-02-23T09:07:55;56.10;;;24.17;;
47715;SDS011;33476;50.984;3.538;2023-02-23T09:10:20;53.38;;;22.48;;
47715;SDS011;33476;50.984;3.538;2023-02-23T09:12:48;53.75;;;22.48;;
47715;SDS011;33476;50.984;3.538;2023-02-23T09:15:15;60.88;;;23.83;;
47715;SDS011;33476;50.984;3.538;2023-02-23T09:17:42;57.83;;;24.13;;
47715;SDS011;33476;50.984;3.538;2023-02-23T09:20:10;59.95;;;24.02;;
47715;SDS011;33476;50.984;3.538;2023-02-23T09:22:38;54.65;;;23.00;;
47715;SDS011;33476;50.984;3.538;2023-02-23T09:25:04;53.13;;;23.67;;
47715;SDS011;33476;50.984;3.538;2023-02-23T09:27:30;55.42;;;24.65;;
47715;SDS011;33476;50.984;3.538;2023-02-23T09:29:55;59.40;;;24.85;;
47715;SDS011;33476;50.984;3.538;2023-02-23T09:32:21;61.15;;;24.27;;
47715;SDS011;33476;50.984;3.538;2023-02-23T09:34:46;52.92;;;22.58;;
47715;SDS011;33476;50.984;3.538;2023-02-23T09:37:12;55.75;;;22.85;;
47715;SDS011;33476;50.984;3.538;2023-02-23T09:39:38;57.25;;;22.67;;
47715;SDS011;33476;50.984;3.538;2023-02-23T09:42:11;53.80;;;21.15;;
47715;SDS011;33476;50.984;3.538;2023-02-23T09:47:19;58.38;;;22.20;;
47715;SDS011;33476;50.984;3.538;2023-02-23T09:50:25;60.10;;;22.52;;
47715;SDS011;33476;50.984;3.538;2023-02-23T09:55:48;52.03;;;21.60;;
47715;SDS011;33476;50.984;3.538;2023-02-23T09:58:18;57.10;;;23.65;;
47715;SDS011;33476;50.984;3.538;2023-02-23T10:00:47;54.70;;;22.60;;
47715;SDS011;33476;50.984;3.538;2023-02-23T10:03:26;56.05;;;22.48;;
47715;SDS011;33476;50.984;3.538;2023-02-23T10:05:59;61.55;;;22.77;;
47715;SDS011;33476;50.984;3.538;2023-02-23T10:14:03;57.90;;;22.75;;
47715;SDS011;33476;50.984;3.538;2023-02-23T10:17:05;53.30;;;21.70;;
47715;SDS011;33476;50.984;3.538;2023-02-23T10:22:18;58.13;;;22.45;;
47715;SDS011;33476;50.984;3.538;2023-02-23T10:24:47;54.85;;;22.15;;
47715;SDS011;33476;50.984;3.538;2023-02-23T10:27:20;56.53;;;21.55;;
47715;SDS011;33476;50.984;3.538;2023-02-23T10:29:53;56.20;;;21.70;;
47715;SDS011;33476;50.984;3.538;2023-02-23T10:35:07;52.08;;;21.25;;
47715;SDS011;33476;50.984;3.538;2023-02-23T10:37:36;51.65;;;20.33;;
47715;SDS011;33476;50.984;3.538;2023-02-23T10:40:02;54.20;;;21.25;;
47715;SDS011;33476;50.984;3.538;2023-02-23T10:42:29;52.85;;;20.17;;
47715;SDS011;33476;50.984;3.538;2023-02-23T10:44:56;49.65;;;21.13;;
47715;SDS011;33476;50.984;3.538;2023-02-23T10:47:31;47.00;;;19.10;;
47715;SDS011;33476;50.984;3.538;2023-02-23T10:50:00;49.95;;;19.95;;
47715;SDS011;33476;50.984;3.538;2023-02-23T10:54:58;46.75;;;19.77;;
47715;SDS011;33476;50.984;3.538;2023-02-23T11:00:05;48.65;;;19.13;;
47715;SDS011;33476;50.984;3.538;2023-02-23T11:02:40;44.47;;;19.65;;
47715;SDS011;33476;50.984;3.538;2023-02-23T11:05:08;46.63;;;20.02;;
47715;SDS011;33476;50.984;3.538;2023-02-23T11:08:07;52.17;;;20.35;;
47715;SDS011;33476;50.984;3.538;2023-02-23T11:10:59;47.28;;;19.33;;
47715;SDS011;33476;50.984;3.538;2023-02-23T11:13:55;46.53;;;18.48;;
47715;SDS011;33476;50.984;3.538;2023-02-23T11:16:22;49.47;;;19.50;;
47715;SDS011;33476;50.984;3.538;2023-02-23T11:19:02;49.13;;;19.83;;
47715;SDS011;33476;50.984;3.538;2023-02-23T11:21:36;44.55;;;18.48;;
47715;SDS011;33476;50.984;3.538;2023-02-23T11:26:44;47.97;;;18.73;;
47715;SDS011;33476;50.984;3.538;2023-02-23T11:31:50;46.08;;;19.63;;
47715;SDS011;33476;50.984;3.538;2023-02-23T11:34:21;46.55;;;19.65;;
47715;SDS011;33476;50.984;3.538;2023-02-23T11:37:06;41.08;;;17.95;;
47715;SDS011;33476;50.984;3.538;2023-02-23T11:39:58;45.28;;;18.95;;
47715;SDS011;33476;50.984;3.538;2023-02-23T11:42:26;43.22;;;18.48;;
47715;SDS011;33476;50.984;3.538;2023-02-23T11:47:31;44.72;;;18.23;;
47715;SDS011;33476;50.984;3.538;2023-02-23T11:49:59;47.75;;;19.42;;
47715;SDS011;33476;50.984;3.538;2023-02-23T11:52:27;46.10;;;18.85;;
47715;SDS011;33476;50.984;3.538;2023-02-23T11:54:54;44.08;;;17.75;;
47715;SDS011;33476;50.984;3.538;2023-02-23T11:57:31;41.60;;;18.25;;
47715;SDS011;33476;50.984;3.538;2023-02-23T11:59:59;48.63;;;19.77;;
47715;SDS011;33476;50.984;3.538;2023-02-23T12:02:32;46.15;;;18.67;;
47715;SDS011;33476;50.984;3.538;2023-02-23T12:05:28;47.55;;;19.55;;
47715;SDS011;33476;50.984;3.538;2023-02-23T12:24:13;45.15;;;19.20;;
47715;SDS011;33476;50.984;3.538;2023-02-23T12:26:45;43.15;;;17.65;;
47715;SDS011;33476;50.984;3.538;2023-02-23T12:31:58;42.58;;;17.00;;
47715;SDS011;33476;50.984;3.538;2023-02-23T12:34:31;41.03;;;17.73;;
47715;SDS011;33476;50.984;3.538;2023-02-23T12:37:26;45.55;;;16.88;;
47715;SDS011;33476;50.984;3.538;2023-02-23T12:45:34;32.83;;;14.07;;
47715;SDS011;33476;50.984;3.538;2023-02-23T12:51:04;30.52;;;13.13;;
47715;SDS011;33476;50.984;3.538;2023-02-23T12:53:40;31.92;;;13.65;;
47715;SDS011;33476;50.984;3.538;2023-02-23T12:56:20;30.05;;;13.05;;
47715;SDS011;33476;50.984;3.538;2023-02-23T12:58:56;35.00;;;12.82;;
47715;SDS011;33476;50.984;3.538;2023-02-23T13:01:33;26.33;;;12.13;;
47715;SDS011;33476;50.984;3.538;2023-02-23T13:04:49;29.40;;;11.27;;
47715;SDS011;33476;50.984;3.538;2023-02-23T13:17:39;24.08;;;11.00;;
47715;SDS011;33476;50.984;3.538;2023-02-23T13:20:16;26.27;;;11.45;;
47715;SDS011;33476;50.984;3.538;2023-02-23T13:23:08;25.60;;;10.43;;
47715;SDS011;33476;50.984;3.538;2023-02-23T13:31:40;23.10;;;9.77;;
47715;SDS011;33476;50.984;3.538;2023-02-23T13:34:09;21.60;;;9.13;;
47715;SDS011;33476;50.984;3.538;2023-02-23T13:36:40;20.85;;;9.43;;
47715;SDS011;33476;50.984;3.538;2023-02-23T13:39:24;21.33;;;9.27;;
47715;SDS011;33476;50.984;3.538;2023-02-23T13:50:50;20.42;;;9.13;;
47715;SDS011;33476;50.984;3.538;2023-02-23T13:53:26;16.83;;;8.30;;
47715;SDS011;33476;50.984;3.538;2023-02-23T13:56:14;18.38;;;8.45;;
47715;SDS011;33476;50.984;3.538;2023-02-23T13:58:45;18.75;;;8.30;;
47715;SDS011;33476;50.984;3.538;2023-02-23T14:01:16;17.15;;;8.23;;
47715;SDS011;33476;50.984;3.538;2023-02-23T14:03:47;21.77;;;9.18;;
47715;SDS011;33476;50.984;3.538;2023-02-23T14:06:18;20.30;;;8.80;;
47715;SDS011;33476;50.984;3.538;2023-02-23T14:08:53;19.55;;;9.18;;
47715;SDS011;33476;50.984;3.538;2023-02-23T14:11:43;18.58;;;9.38;;
47715;SDS011;33476;50.984;3.538;2023-02-23T14:14:37;18.88;;;8.95;;
47715;SDS011;33476;50.984;3.538;2023-02-23T14:22:35;23.17;;;8.93;;
47715;SDS011;33476;50.984;3.538;2023-02-23T14:27:58;19.73;;;9.18;;
47715;SDS011;33476;50.984;3.538;2023-02-23T14:30:26;18.05;;;9.05;;
47715;SDS011;33476;50.984;3.538;2023-02-23T14:33:07;24.60;;;9.73;;
47715;SDS011;33476;50.984;3.538;2023-02-23T14:36:00;18.85;;;8.57;;
47715;SDS011;33476;50.984;3.538;2023-02-23T14:44:13;15.90;;;7.40;;
47715;SDS011;33476;50.984;3.538;2023-02-23T14:46:46;12.23;;;5.78;;
47715;SDS011;33476;50.984;3.538;2023-02-23T14:49:31;14.63;;;7.07;;
47715;SDS011;33476;50.984;3.538;2023-02-23T14:52:05;15.45;;;7.00;;
47715;SDS011;33476;50.984;3.538;2023-02-23T14:54:36;13.68;;;6.07;;
47715;SDS011;33476;50.984;3.538;2023-02-23T14:57:15;11.52;;;5.90;;
47715;SDS011;33476;50.984;3.538;2023-02-23T14:59:43;13.32;;;6.07;;
47715;SDS011;33476;50.984;3.538;2023-02-23T15:02:15;14.68;;;5.95;;
47715;SDS011;33476;50.984;3.538;2023-02-23T15:04:42;8.90;;;4.93;;
47715;SDS011;33476;50.984;3.538;2023-02-23T15:07:11;8.95;;;4.65;;
47715;SDS011;33476;50.984;3.538;2023-02-23T15:09:42;9.32;;;5.07;;
47715;SDS011;33476;50.984;3.538;2023-02-23T15:12:18;13.02;;;5.43;;
47715;SDS011;33476;50.984;3.538;2023-02-23T15:14:51;9.77;;;5.22;;
47715;SDS011;33476;50.984;3.538;2023-02-23T15:17:19;11.77;;;6.13;;
47715;SDS011;33476;50.984;3.538;2023-02-23T15:19:49;13.25;;;6.32;;
47715;SDS011;33476;50.984;3.538;2023-02-23T15:22:37;12.98;;;6.05;;
47715;SDS011;33476;50.984;3.538;2023-02-23T15:25:10;10.77;;;5.97;;
47715;SDS011;33476;50.984;3.538;2023-02-23T15:27:41;13.88;;;6.60;;
47715;SDS011;33476;50.984;3.538;2023-02-23T15:32:42;10.73;;;5.88;;
47715;SDS011;33476;50.984;3.538;2023-02-23T15:35:08;10.40;;;5.18;;
47715;SDS011;33476;50.984;3.538;2023-02-23T15:37:40;9.65;;;5.03;;
47715;SDS011;33476;50.984;3.538;2023-02-23T15:40:15;12.10;;;5.22;;
47715;SDS011;33476;50.984;3.538;2023-02-23T15:42:47;12.10;;;4.88;;
47715;SDS011;33476;50.984;3.538;2023-02-23T15:45:34;11.35;;;5.13;;
47715;SDS011;33476;50.984;3.538;2023-02-23T15:48:05;9.77;;;4.85;;
47715;SDS011;33476;50.984;3.538;2023-02-23T15:50:42;9.50;;;4.70;;
47715;SDS011;33476;50.984;3.538;2023-02-23T15:56:08;11.05;;;5.72;;
47715;SDS011;33476;50.984;3.538;2023-02-23T15:58:39;8.55;;;4.43;;
47715;SDS011;33476;50.984;3.538;2023-02-23T16:01:10;8.50;;;4.15;;
47715;SDS011;33476;50.984;3.538;2023-02-23T16:03:37;10.57;;;4.97;;
47715;SDS011;33476;50.984;3.538;2023-02-23T16:14:19;10.18;;;4.93;;
47715;SDS011;33476;50.984;3.538;2023-02-23T16:16:47;13.10;;;5.68;;
47715;SDS011;33476;50.984;3.538;2023-02-23T16:19:15;11.80;;;5.93;;
47715;SDS011;33476;50.984;3.538;2023-02-23T16:21:46;11.57;;;5.47;;
47715;SDS011;33476;50.984;3.538;2023-02-23T16:24:18;11.18;;;5.57;;
47715;SDS011;33476;50.984;3.538;2023-02-23T16:29:29;9.52;;;5.13;;
47715;SDS011;33476;50.984;3.538;2023-02-23T16:32:00;15.93;;;6.40;;
47715;SDS011;33476;50.984;3.538;2023-02-23T16:34:31;11.65;;;6.18;;
47715;SDS011;33476;50.984;3.538;2023-02-23T16:37:00;16.05;;;5.53;;
47715;SDS011;33476;50.984;3.538;2023-02-23T16:39:29;13.68;;;5.18;;
47715;SDS011;33476;50.984;3.538;2023-02-23T16:41:58;14.02;;;6.25;;
47715;SDS011;33476;50.984;3.538;2023-02-23T16:44:27;12.35;;;5.72;;
47715;SDS011;33476;50.984;3.538;2023-02-23T16:49:25;13.02;;;6.07;;
47715;SDS011;33476;50.984;3.538;2023-02-23T16:51:54;12.98;;;6.55;;
47715;SDS011;33476;50.984;3.538;2023-02-23T16:54:20;13.45;;;6.32;;
47715;SDS011;33476;50.984;3.538;2023-02-23T16:56:45;14.30;;;6.38;;
47715;SDS011;33476;50.984;3.538;2023-02-23T16:59:13;13.98;;;7.00;;
47715;SDS011;33476;50.984;3.538;2023-02-23T17:01:41;18.17;;;6.72;;
47715;SDS011;33476;50.984;3.538;2023-02-23T17:04:10;10.90;;;5.88;;
47715;SDS011;33476;50.984;3.538;2023-02-23T17:06:39;16.10;;;6.15;;
47715;SDS011;33476;50.984;3.538;2023-02-23T17:09:07;13.05;;;5.55;;
47715;SDS011;33476;50.984;3.538;2023-02-23T17:11:32;13.27;;;5.95;;
47715;SDS011;33476;50.984;3.538;2023-02-23T17:13:58;12.77;;;5.95;;
47715;SDS011;33476;50.984;3.538;2023-02-23T17:16:23;11.50;;;5.70;;